createdAt,value
2017-03-28T00:00:24.217Z,29.8
2017-03-28T00:01:24.082Z,29.8
2017-03-28T00:02:24.142Z,29.8
2017-03-28T00:03:24.293Z,29.8
2017-03-28T00:05:24.914Z,29.8
2017-03-28T00:06:23.099Z,29.8
2017-03-28T00:07:22.805Z,29.8
2017-03-28T00:08:24.527Z,29.8
2017-03-28T00:09:22.981Z,29.8
2017-03-28T00:10:24.673Z,29.8
2017-03-28T00:11:23.017Z,29.8
2017-03-28T00:12:23.269Z,29.8
2017-03-28T00:13:24.896Z,29.8
2017-03-28T00:14:24.915Z,29.8
2017-03-28T00:15:24.907Z,29.8
2017-03-28T00:17:24.954Z,29.8
2017-03-28T00:18:23.595Z,29.8
2017-03-28T00:19:25.120Z,29.8
2017-03-28T00:20:23.644Z,29.8
2017-03-28T00:21:23.494Z,29.8
2017-03-28T00:22:23.728Z,29.8
2017-03-28T00:23:25.350Z,29.8
2017-03-28T00:24:25.663Z,29.8
2017-03-28T00:25:25.532Z,29.8
2017-03-28T00:26:25.594Z,29.8
2017-03-28T00:27:25.648Z,29.8
2017-03-28T00:28:25.696Z,29.8
2017-03-28T00:29:24.121Z,29.8
2017-03-28T00:30:31.875Z,29.8
2017-03-28T00:31:24.398Z,29.8
2017-03-28T00:32:26.042Z,29.8
2017-03-28T00:33:25.949Z,29.8
2017-03-28T00:34:24.413Z,29.8
2017-03-28T00:35:26.066Z,29.8
2017-03-28T00:36:24.774Z,29.8
2017-03-28T00:37:26.172Z,29.8
2017-03-28T00:38:24.796Z,29.8
2017-03-28T00:39:32.329Z,29.8
2017-03-28T00:40:24.714Z,29.8
2017-03-28T00:41:24.721Z,29.8
2017-03-28T00:42:25.084Z,29.8
2017-03-28T00:43:24.909Z,29.8
2017-03-28T00:44:26.661Z,29.8
2017-03-28T00:45:26.615Z,29.8
2017-03-28T00:46:30.599Z,29.8
2017-03-28T00:47:26.675Z,29.8
2017-03-28T00:48:27.511Z,29.8
2017-03-28T00:49:25.031Z,29.8
2017-03-28T00:50:26.743Z,29.8
2017-03-28T00:51:25.153Z,29.8
2017-03-28T00:52:25.358Z,29.8
2017-03-28T00:53:26.944Z,29.8
2017-03-28T00:54:25.735Z,29.8
2017-03-28T00:55:27.144Z,29.8
2017-03-28T00:56:25.555Z,29.8
2017-03-28T00:57:25.708Z,29.8
2017-03-28T00:58:27.197Z,29.8
2017-03-28T00:59:25.648Z,29.8
2017-03-28T01:00:25.854Z,29.8
2017-03-28T01:01:27.454Z,29.8
2017-03-28T01:02:25.846Z,29.8
2017-03-28T01:03:27.536Z,29.8
2017-03-28T01:04:27.708Z,29.8
2017-03-28T01:05:26.098Z,29.8
2017-03-28T01:06:27.834Z,29.8
2017-03-28T01:07:26.204Z,29.7
2017-03-28T01:08:26.206Z,29.8
2017-03-28T01:09:27.994Z,29.8
2017-03-28T01:10:32.432Z,29.7
2017-03-28T01:11:26.411Z,29.8
2017-03-28T01:12:32.371Z,29.8
2017-03-28T01:13:26.623Z,29.7
2017-03-28T01:14:26.614Z,29.7
2017-03-28T01:15:26.476Z,29.8
2017-03-28T01:16:32.579Z,29.8
2017-03-28T01:17:28.263Z,29.8
2017-03-28T01:18:28.317Z,29.7
2017-03-28T01:19:28.427Z,29.8
2017-03-28T01:20:26.745Z,29.8
2017-03-28T01:21:26.878Z,29.8
2017-03-28T01:22:26.929Z,29.8
2017-03-28T01:23:26.828Z,29.8
2017-03-28T01:24:29.011Z,29.8
2017-03-28T01:26:27.587Z,29.7
2017-03-28T01:27:27.625Z,29.8
2017-03-28T01:28:29.166Z,29.8
2017-03-28T01:29:35.151Z,29.7
2017-03-28T01:30:27.820Z,29.7
2017-03-28T01:31:27.749Z,29.7
2017-03-28T01:32:29.559Z,29.7
2017-03-28T01:33:29.488Z,29.7
2017-03-28T01:34:29.635Z,29.7
2017-03-28T01:35:29.577Z,29.7
2017-03-28T01:36:29.576Z,29.7
2017-03-28T01:37:29.658Z,29.7
2017-03-28T01:38:29.876Z,29.7
2017-03-28T01:39:28.241Z,29.8
2017-03-28T01:40:28.257Z,29.7
2017-03-28T01:41:30.191Z,29.7
2017-03-28T01:42:34.829Z,29.7
2017-03-28T01:43:28.490Z,29.7
2017-03-28T01:44:39.561Z,29.7
2017-03-28T01:45:28.733Z,29.7
2017-03-28T01:46:30.296Z,29.7
2017-03-28T01:47:39.844Z,29.7
2017-03-28T01:48:33.602Z,29.7
2017-03-28T01:49:30.418Z,29.7
2017-03-28T01:51:28.986Z,29.7
2017-03-28T01:52:30.678Z,29.7
2017-03-28T01:53:29.154Z,29.7
2017-03-28T01:54:29.150Z,29.7
2017-03-28T01:55:31.147Z,29.7
2017-03-28T01:56:29.197Z,29.7
2017-03-28T01:57:30.784Z,29.7
2017-03-28T01:58:30.809Z,29.7
2017-03-28T01:59:29.441Z,29.7
2017-03-28T02:00:29.231Z,29.7
2017-03-28T02:01:30.977Z,29.7
2017-03-28T02:02:30.949Z,29.7
2017-03-28T02:04:29.749Z,29.7
2017-03-28T02:05:29.899Z,29.7
2017-03-28T02:07:31.275Z,29.7
2017-03-28T02:08:31.229Z,29.7
2017-03-28T02:09:31.405Z,29.6
2017-03-28T02:10:31.439Z,29.7
2017-03-28T02:11:31.595Z,29.7
2017-03-28T02:12:31.370Z,29.7
2017-03-28T02:13:29.913Z,29.7
2017-03-28T02:14:31.583Z,29.7
2017-03-28T02:15:31.627Z,29.7
2017-03-28T02:16:29.994Z,29.7
2017-03-28T02:17:30.264Z,29.6
2017-03-28T02:18:31.774Z,29.7
2017-03-28T02:19:31.938Z,29.7
2017-03-28T02:20:30.223Z,29.7
2017-03-28T02:21:32.013Z,29.6
2017-03-28T02:22:30.775Z,29.7
2017-03-28T02:23:30.480Z,29.7
2017-03-28T02:24:30.475Z,29.6
2017-03-28T02:25:30.659Z,29.7
2017-03-28T02:26:32.181Z,29.7
2017-03-28T02:27:32.395Z,29.7
2017-03-28T02:28:31.060Z,29.6
2017-03-28T02:29:39.852Z,29.7
2017-03-28T02:30:32.607Z,29.7
2017-03-28T02:31:32.528Z,29.7
2017-03-28T02:32:32.536Z,29.7
2017-03-28T02:33:32.665Z,29.7
2017-03-28T02:34:32.947Z,29.6
2017-03-28T02:35:31.294Z,29.7
2017-03-28T02:36:32.789Z,29.7
2017-03-28T02:37:32.947Z,29.6
2017-03-28T02:38:33.076Z,29.6
2017-03-28T02:39:31.699Z,29.6
2017-03-28T02:40:49.815Z,29.6
2017-03-28T02:41:31.517Z,29.6
2017-03-28T02:42:33.152Z,29.6
2017-03-28T02:43:31.557Z,29.6
2017-03-28T02:44:31.554Z,29.6
2017-03-28T02:45:33.432Z,29.7
2017-03-28T02:46:31.692Z,29.6
2017-03-28T02:47:31.627Z,29.6
2017-03-28T02:48:33.392Z,29.6
2017-03-28T02:49:31.850Z,29.6
2017-03-28T02:50:31.968Z,29.6
2017-03-28T02:51:32.046Z,29.7
2017-03-28T02:52:33.554Z,29.6
2017-03-28T02:53:33.581Z,29.7
2017-03-28T02:54:33.713Z,29.7
2017-03-28T02:55:32.170Z,29.7
2017-03-28T02:56:32.205Z,29.6
2017-03-28T02:57:32.383Z,29.6
2017-03-28T02:58:32.282Z,29.6
2017-03-28T02:59:33.830Z,29.6
2017-03-28T03:00:32.261Z,29.6
2017-03-28T03:01:32.505Z,29.6
2017-03-28T03:02:32.684Z,29.6
2017-03-28T03:03:34.117Z,29.6
2017-03-28T03:04:42.241Z,29.6
2017-03-28T03:05:34.371Z,29.6
2017-03-28T03:06:32.718Z,29.7
2017-03-28T03:07:34.509Z,29.6
2017-03-28T03:08:33.176Z,29.6
2017-03-28T03:09:32.910Z,29.6
2017-03-28T03:10:34.603Z,29.6
2017-03-28T03:11:41.310Z,29.6
2017-03-28T03:12:34.664Z,29.6
2017-03-28T03:13:33.135Z,29.6
2017-03-28T03:14:33.340Z,29.6
2017-03-28T03:15:35.005Z,29.6
2017-03-28T03:16:33.285Z,29.6
2017-03-28T03:17:33.464Z,29.6
2017-03-28T03:18:35.017Z,29.6
2017-03-28T03:19:33.429Z,29.6
2017-03-28T03:20:35.243Z,29.6
2017-03-28T03:21:35.774Z,29.6
2017-03-28T03:22:35.189Z,29.6
2017-03-28T03:23:33.832Z,29.6
2017-03-28T03:24:35.557Z,29.6
2017-03-28T03:25:33.932Z,29.6
2017-03-28T03:26:35.664Z,29.6
2017-03-28T03:27:33.966Z,29.6
2017-03-28T03:28:41.426Z,29.6
2017-03-28T03:29:35.611Z,29.6
2017-03-28T03:30:34.114Z,29.6
2017-03-28T03:31:34.315Z,29.6
2017-03-28T03:32:34.438Z,29.6
2017-03-28T03:33:34.380Z,29.6
2017-03-28T03:34:36.080Z,29.6
2017-03-28T03:35:34.617Z,29.6
2017-03-28T03:36:36.165Z,29.6
2017-03-28T03:37:34.670Z,29.6
2017-03-28T03:38:34.987Z,29.6
2017-03-28T03:39:34.754Z,29.6
2017-03-28T03:40:36.437Z,29.6
2017-03-28T03:41:41.276Z,29.6
2017-03-28T03:42:36.484Z,29.6
2017-03-28T03:43:36.556Z,29.7
2017-03-28T03:44:35.250Z,29.7
2017-03-28T03:45:35.040Z,29.7
2017-03-28T03:46:41.701Z,29.8
2017-03-28T03:47:36.837Z,29.8
2017-03-28T03:48:36.908Z,29.8
2017-03-28T03:49:35.395Z,29.8
2017-03-28T03:50:37.189Z,29.8
2017-03-28T03:51:42.921Z,29.8
2017-03-28T03:52:35.387Z,29.8
2017-03-28T03:53:36.991Z,29.8
2017-03-28T03:54:35.462Z,29.8
2017-03-28T03:55:37.125Z,29.8
2017-03-28T03:56:37.362Z,29.7
2017-03-28T03:57:37.402Z,29.7
2017-03-28T03:58:37.433Z,29.7
2017-03-28T03:59:35.758Z,29.7
2017-03-28T04:00:37.432Z,29.7
2017-03-28T04:01:35.891Z,29.6
2017-03-28T04:02:36.145Z,29.7
2017-03-28T04:03:36.229Z,29.7
2017-03-28T04:04:36.199Z,29.7
2017-03-28T04:06:36.267Z,29.7
2017-03-28T04:07:38.125Z,29.7
2017-03-28T04:08:38.156Z,29.7
2017-03-28T04:09:41.941Z,29.7
2017-03-28T04:10:38.216Z,29.7
2017-03-28T04:11:38.251Z,29.7
2017-03-28T04:12:38.308Z,29.7
2017-03-28T04:13:38.377Z,29.7
2017-03-28T04:14:38.668Z,29.7
2017-03-28T04:15:39.009Z,29.7
2017-03-28T04:16:38.499Z,29.6
2017-03-28T04:17:38.502Z,29.6
2017-03-28T04:18:38.687Z,29.6
2017-03-28T04:19:37.026Z,29.6
2017-03-28T04:20:38.817Z,29.6
2017-03-28T04:21:37.890Z,29.6
2017-03-28T04:22:37.129Z,29.6
2017-03-28T04:23:38.748Z,29.6
2017-03-28T04:24:37.654Z,29.6
2017-03-28T04:25:37.162Z,29.6
2017-03-28T04:26:38.986Z,29.6
2017-03-28T04:27:37.408Z,29.6
2017-03-28T04:28:38.404Z,29.6
2017-03-28T04:30:43.198Z,29.6
2017-03-28T04:31:39.109Z,29.6
2017-03-28T04:32:38.045Z,29.6
2017-03-28T04:33:39.970Z,29.6
2017-03-28T04:34:39.314Z,29.6
2017-03-28T04:37:39.432Z,29.6
2017-03-28T04:38:39.801Z,29.6
2017-03-28T04:39:37.957Z,29.6
2017-03-28T04:40:38.745Z,29.6
2017-03-28T04:41:39.652Z,29.5
2017-03-28T04:42:39.813Z,29.3
2017-03-28T04:43:39.003Z,29.1
2017-03-28T04:44:38.489Z,28.9
2017-03-28T04:45:38.369Z,28.8
2017-03-28T04:46:39.929Z,28.7
2017-03-28T04:47:38.366Z,28.6
2017-03-28T04:48:40.015Z,28.5
2017-03-28T04:50:38.549Z,28.2
2017-03-28T04:52:06.928Z,28.1
2017-03-28T04:53:07.045Z,28
2017-03-28T04:54:06.942Z,28
2017-03-28T04:55:07.152Z,28.1
2017-03-28T04:56:06.969Z,28.1
2017-03-28T04:58:08.854Z,28.3
2017-03-28T04:59:08.739Z,28.4
2017-03-28T05:00:08.792Z,28.4
2017-03-28T05:01:08.674Z,28.5
2017-03-28T05:02:08.662Z,28.5
2017-03-28T05:03:08.808Z,28.6
2017-03-28T05:04:08.734Z,28.7
2017-03-28T05:05:07.267Z,28.8
2017-03-28T05:06:07.529Z,28.8
2017-03-28T05:07:08.953Z,28.9
2017-03-28T05:08:07.355Z,28.9
2017-03-28T05:09:07.490Z,28.9
2017-03-28T05:10:07.368Z,29
2017-03-28T05:11:09.000Z,29
2017-03-28T05:12:09.726Z,29.1
2017-03-28T05:13:07.763Z,29.1
2017-03-28T05:14:09.121Z,29.2
2017-03-28T05:16:09.275Z,29.2
2017-03-28T05:17:09.350Z,29.2
2017-03-28T05:18:13.375Z,29.3
2017-03-28T05:19:09.462Z,29.4
2017-03-28T05:20:07.957Z,29.4
2017-03-28T05:21:07.919Z,29.5
2017-03-28T05:22:09.600Z,29.5
2017-03-28T05:24:09.612Z,29.5
2017-03-28T05:25:09.724Z,29.5
2017-03-28T05:26:08.335Z,29.6
2017-03-28T05:27:08.447Z,29.6
2017-03-28T05:28:08.625Z,29.6
2017-03-28T05:29:08.357Z,29.6
2017-03-28T05:30:09.996Z,29.6
2017-03-28T05:31:08.523Z,29.6
2017-03-28T05:32:08.633Z,29.7
2017-03-28T05:33:10.944Z,29.7
2017-03-28T05:34:08.662Z,29.7
2017-03-28T05:35:08.652Z,29.8
2017-03-28T05:36:10.264Z,29.8
2017-03-28T05:37:08.796Z,29.8
2017-03-28T05:38:10.465Z,29.9
2017-03-28T05:42:10.675Z,29.9
2017-03-28T05:43:09.340Z,30
2017-03-28T05:44:10.710Z,29.8
2017-03-28T05:45:09.336Z,29.7
2017-03-28T05:46:10.823Z,29.5
2017-03-28T05:47:09.365Z,29.3
2017-03-28T05:48:11.063Z,29.1
2017-03-28T05:49:09.288Z,29
2017-03-28T05:50:11.155Z,28.9
2017-03-28T05:51:13.809Z,28.8
2017-03-28T05:52:11.002Z,28.6
2017-03-28T05:53:11.077Z,28.6
2017-03-28T05:54:11.447Z,28.5
2017-03-28T05:55:09.939Z,28.4
2017-03-28T05:56:10.083Z,28.3
2017-03-28T05:57:11.255Z,28.3
2017-03-28T05:59:11.370Z,28.1
2017-03-28T06:00:09.967Z,28.1
2017-03-28T06:01:16.075Z,28
2017-03-28T06:02:11.511Z,28
2017-03-28T06:03:10.073Z,28
2017-03-28T06:04:17.566Z,28
2017-03-28T06:05:11.716Z,28
2017-03-28T06:06:10.205Z,28
2017-03-28T06:07:10.438Z,28
2017-03-28T06:08:10.350Z,28
2017-03-28T06:09:10.287Z,28
2017-03-28T06:10:10.415Z,28
2017-03-28T06:11:14.765Z,28
2017-03-28T06:12:12.197Z,28
2017-03-28T06:13:12.697Z,28
2017-03-28T06:14:12.224Z,28
2017-03-28T06:15:12.272Z,28
2017-03-28T06:17:07.511Z,28
2017-03-28T06:18:09.144Z,28
2017-03-28T06:19:07.682Z,28
2017-03-28T06:22:07.847Z,28.1
2017-03-28T06:23:07.827Z,28.1
2017-03-28T06:24:08.005Z,28.1
2017-03-28T06:25:09.561Z,28.1
2017-03-28T06:26:09.753Z,28
2017-03-28T06:27:08.078Z,28.1
2017-03-28T06:28:08.287Z,28.1
2017-03-28T06:29:08.278Z,28.1
2017-03-28T06:30:08.224Z,28.1
2017-03-28T06:31:08.376Z,28.1
2017-03-28T06:32:09.979Z,28.1
2017-03-28T06:33:09.892Z,28.1
2017-03-28T06:34:08.355Z,28.2
2017-03-28T06:35:08.575Z,28.2
2017-03-28T06:36:08.466Z,28.2
2017-03-28T06:37:10.175Z,28.2
2017-03-28T06:38:10.917Z,28.2
2017-03-28T06:40:08.600Z,28.3
2017-03-28T06:41:08.772Z,28.3
2017-03-28T06:42:10.465Z,28.3
2017-03-28T06:43:08.944Z,28.3
2017-03-28T06:44:09.005Z,28.3
2017-03-28T06:45:15.900Z,28.3
2017-03-28T06:46:10.248Z,28.4
2017-03-28T06:47:09.192Z,28.4
2017-03-28T06:48:09.316Z,28.4
2017-03-28T06:49:14.836Z,28.5
2017-03-28T06:50:09.485Z,28.5
2017-03-28T06:51:13.508Z,28.5
2017-03-28T06:52:09.665Z,28.5
2017-03-28T06:53:09.658Z,28.5
2017-03-28T06:54:13.611Z,28.6
2017-03-28T06:55:09.729Z,28.6
2017-03-28T06:56:09.813Z,28.6
2017-03-28T06:57:11.420Z,28.6
2017-03-28T06:58:09.835Z,28.7
2017-03-28T06:59:10.516Z,28.7
2017-03-28T07:00:10.100Z,28.6
2017-03-28T07:01:19.834Z,28.7
2017-03-28T07:02:10.330Z,28.7
2017-03-28T07:03:10.103Z,28.7
2017-03-28T07:04:10.104Z,28.7
2017-03-28T07:05:11.671Z,28.8
2017-03-28T07:06:19.518Z,28.8
2017-03-28T07:07:11.895Z,28.9
2017-03-28T07:08:11.970Z,28.9
2017-03-28T07:09:11.248Z,28.9
2017-03-28T07:10:10.540Z,29
2017-03-28T07:11:12.017Z,29
2017-03-28T07:12:10.463Z,29
2017-03-28T07:13:12.108Z,29
2017-03-28T07:14:12.328Z,29.1
2017-03-28T07:15:11.471Z,29.1
2017-03-28T07:16:12.292Z,29.1
2017-03-28T07:17:10.801Z,29.2
2017-03-28T07:18:10.914Z,29.3
2017-03-28T07:19:10.849Z,29.3
2017-03-28T07:20:10.868Z,29.4
2017-03-28T07:21:21.356Z,29.5
2017-03-28T07:22:12.769Z,29.5
2017-03-28T07:23:12.603Z,29.6
2017-03-28T07:24:12.778Z,29.7
2017-03-28T07:25:11.257Z,29.7
2017-03-28T07:26:12.825Z,29.8
2017-03-28T07:27:13.712Z,29.9
2017-03-28T07:28:13.693Z,30
2017-03-28T07:29:13.042Z,30
2017-03-28T07:30:13.144Z,30.1
2017-03-28T07:31:12.050Z,30.1
2017-03-28T07:32:13.202Z,30.3
2017-03-28T07:33:13.275Z,30.4
2017-03-28T07:34:11.815Z,30.4
2017-03-28T07:36:13.299Z,30.5
2017-03-28T07:37:13.904Z,30.6
2017-03-28T07:38:11.691Z,30.7
2017-03-28T07:39:11.876Z,30.7
2017-03-28T07:40:14.103Z,30.8
2017-03-28T07:41:14.062Z,30.9
2017-03-28T07:42:13.535Z,30.9
2017-03-28T07:43:15.725Z,30.9
2017-03-28T07:44:12.223Z,30.9
2017-03-28T07:45:12.069Z,30.9
2017-03-28T07:46:13.554Z,31
2017-03-28T07:47:21.399Z,31
2017-03-28T07:48:12.101Z,31
2017-03-28T07:49:13.645Z,31
2017-03-28T07:50:12.274Z,30.9
2017-03-28T07:51:13.836Z,30.9
2017-03-28T07:52:14.080Z,30.8
2017-03-28T07:53:13.902Z,30.8
2017-03-28T07:54:12.303Z,30.6
2017-03-28T07:55:14.159Z,30.6
2017-03-28T07:56:12.561Z,30.5
2017-03-28T07:57:22.580Z,30.5
2017-03-28T07:58:12.551Z,30.5
2017-03-28T07:59:14.238Z,30.5
2017-03-28T08:00:12.853Z,30.4
2017-03-28T08:01:15.021Z,30.4
2017-03-28T08:02:13.377Z,30.4
2017-03-28T08:03:21.378Z,30.4
2017-03-28T08:04:16.047Z,30.5
2017-03-28T08:05:14.038Z,30.5
2017-03-28T08:06:13.077Z,30.6
2017-03-28T08:07:13.089Z,30.5
2017-03-28T08:08:13.991Z,30.5
2017-03-28T08:09:14.978Z,30.5
2017-03-28T08:10:22.828Z,30.6
2017-03-28T08:11:14.814Z,30.7
2017-03-28T08:12:14.056Z,30.8
2017-03-28T08:13:22.963Z,30.9
2017-03-28T08:14:22.128Z,31
2017-03-28T08:15:15.776Z,31.1
2017-03-28T08:16:13.665Z,31.1
2017-03-28T08:17:13.699Z,31.2
2017-03-28T08:18:15.312Z,31.2
2017-03-28T08:19:15.367Z,31.3
2017-03-28T08:20:15.574Z,31.3
2017-03-28T08:21:13.871Z,31.3
2017-03-28T08:22:15.592Z,31.3
2017-03-28T08:23:13.895Z,31.3
2017-03-28T08:24:14.007Z,31.3
2017-03-28T08:25:15.743Z,31.3
2017-03-28T08:26:17.701Z,31.3
2017-03-28T08:27:15.943Z,31.2
2017-03-28T08:28:15.759Z,31.2
2017-03-28T08:29:14.444Z,31.2
2017-03-28T08:30:16.120Z,31.2
2017-03-28T08:31:15.087Z,31.1
2017-03-28T08:32:16.118Z,31.1
2017-03-28T08:33:16.326Z,31
2017-03-28T08:34:14.788Z,30.9
2017-03-28T08:35:16.411Z,30.9
2017-03-28T08:36:16.254Z,30.9
2017-03-28T08:37:16.403Z,30.9
2017-03-28T08:38:14.819Z,30.8
2017-03-28T08:39:16.510Z,30.8
2017-03-28T08:40:14.889Z,30.8
2017-03-28T08:41:14.981Z,30.8
2017-03-28T08:42:22.531Z,30.8
2017-03-28T08:43:15.944Z,30.7
2017-03-28T08:44:15.013Z,30.8
2017-03-28T08:45:15.059Z,30.8
2017-03-28T08:46:15.156Z,30.8
2017-03-28T08:47:17.047Z,30.8
2017-03-28T08:48:16.978Z,30.8
2017-03-28T08:49:17.178Z,30.9
2017-03-28T08:50:15.477Z,30.8
2017-03-28T08:51:15.562Z,30.9
2017-03-28T08:52:17.843Z,30.9
2017-03-28T08:53:17.213Z,30.9
2017-03-28T08:54:15.572Z,30.9
2017-03-28T08:55:15.630Z,30.9
2017-03-28T08:56:15.696Z,30.9
2017-03-28T08:57:15.776Z,31
2017-03-28T08:58:15.960Z,31
2017-03-28T08:59:17.564Z,31
2017-03-28T09:00:16.162Z,31
2017-03-28T09:01:16.210Z,31
2017-03-28T09:02:16.137Z,31
2017-03-28T09:03:16.374Z,31
2017-03-28T09:04:17.933Z,31
2017-03-28T09:05:16.954Z,31
2017-03-28T09:06:17.984Z,31
2017-03-28T09:07:16.420Z,31.1
2017-03-28T09:08:16.515Z,31.1
2017-03-28T09:09:16.640Z,31.1
2017-03-28T09:10:18.258Z,31.1
2017-03-28T09:11:16.682Z,31.1
2017-03-28T09:12:18.289Z,31.1
2017-03-28T09:13:17.309Z,31.1
2017-03-28T09:14:16.766Z,31.2
2017-03-28T09:15:18.066Z,31.2
2017-03-28T09:16:18.565Z,31.2
2017-03-28T09:17:18.467Z,31.2
2017-03-28T09:19:17.079Z,31.3
2017-03-28T09:20:18.539Z,31.3
2017-03-28T09:21:16.961Z,31.3
2017-03-28T09:22:17.698Z,31.2
2017-03-28T09:23:18.701Z,31.3
2017-03-28T09:24:18.665Z,31.3
2017-03-28T09:25:18.725Z,31.3
2017-03-28T09:26:17.854Z,31.3
2017-03-28T09:27:18.997Z,31.4
2017-03-28T09:28:18.860Z,31.4
2017-03-28T09:29:18.947Z,31.4
2017-03-28T09:30:17.536Z,31.4
2017-03-28T09:31:17.618Z,31.5
2017-03-28T09:32:18.388Z,31.5
2017-03-28T09:33:19.634Z,31.5
2017-03-28T09:34:25.298Z,31.5
2017-03-28T09:35:19.381Z,31.5
2017-03-28T09:36:27.114Z,31.6
2017-03-28T09:37:19.505Z,31.6
2017-03-28T09:38:19.526Z,31.6
2017-03-28T09:39:18.054Z,31.6
2017-03-28T09:40:24.481Z,31.6
2017-03-28T09:41:17.996Z,31.6
2017-03-28T09:42:18.011Z,31.6
2017-03-28T09:43:25.333Z,31.6
2017-03-28T09:44:19.631Z,31.6
2017-03-28T09:45:18.888Z,31.7
2017-03-28T09:46:23.213Z,31.7
2017-03-28T09:47:18.273Z,31.7
2017-03-28T09:48:19.883Z,31.8
2017-03-28T09:49:19.984Z,31.8
2017-03-28T09:50:19.879Z,31.8
2017-03-28T09:51:18.804Z,31.8
2017-03-28T09:52:19.148Z,31.8
2017-03-28T09:53:18.513Z,31.8
2017-03-28T09:54:19.188Z,31.8
2017-03-28T09:55:21.995Z,31.9
2017-03-28T09:56:26.384Z,31.9
2017-03-28T09:57:20.367Z,31.8
2017-03-28T09:58:18.878Z,31.9
2017-03-28T09:59:20.474Z,31.9
2017-03-28T10:00:20.541Z,31.9
2017-03-28T10:01:20.683Z,31.9
2017-03-28T10:02:19.859Z,31.9
2017-03-28T10:03:19.996Z,31.9
2017-03-28T10:04:30.446Z,31.8
2017-03-28T10:05:19.332Z,31.8
2017-03-28T10:06:19.362Z,31.8
2017-03-28T10:07:19.350Z,31.9
2017-03-28T10:08:19.335Z,31.9
2017-03-28T10:09:19.298Z,31.9
2017-03-28T10:10:20.979Z,31.9
2017-03-28T10:11:19.504Z,32
2017-03-28T10:12:21.163Z,32
2017-03-28T10:13:19.650Z,32
2017-03-28T10:14:20.609Z,32
2017-03-28T10:15:21.457Z,32
2017-03-28T10:16:19.808Z,32.1
2017-03-28T10:17:26.057Z,32.1
2017-03-28T10:18:21.664Z,32.1
2017-03-28T10:19:22.216Z,32.1
2017-03-28T10:20:21.715Z,32.1
2017-03-28T10:21:21.639Z,32.1
2017-03-28T10:22:20.111Z,32.1
2017-03-28T10:23:21.006Z,32.1
2017-03-28T10:24:21.904Z,32.2
2017-03-28T10:25:21.975Z,32.2
2017-03-28T10:26:21.885Z,32.1
2017-03-28T10:27:20.521Z,32.1
2017-03-28T10:28:21.110Z,32
2017-03-28T10:29:23.313Z,32
2017-03-28T10:30:20.683Z,32
2017-03-28T10:31:22.176Z,32
2017-03-28T10:32:22.284Z,32
2017-03-28T10:33:22.292Z,32
2017-03-28T10:34:22.253Z,32
2017-03-28T10:35:22.433Z,32
2017-03-28T10:36:26.079Z,32
2017-03-28T10:37:20.862Z,31.9
2017-03-28T10:38:22.472Z,32
2017-03-28T10:39:20.989Z,32
2017-03-28T10:40:22.449Z,32
2017-03-28T10:41:22.532Z,32
2017-03-28T10:42:20.901Z,32
2017-03-28T10:43:22.540Z,32
2017-03-28T10:44:22.658Z,32
2017-03-28T10:45:22.981Z,32
2017-03-28T10:46:29.883Z,32
2017-03-28T10:47:21.151Z,32
2017-03-28T10:48:21.441Z,31.9
2017-03-28T10:49:21.482Z,31.9
2017-03-28T10:50:23.044Z,31.9
2017-03-28T10:51:23.669Z,31.9
2017-03-28T10:52:21.515Z,31.8
2017-03-28T10:53:23.051Z,31.9
2017-03-28T10:54:25.167Z,31.9
2017-03-28T10:55:23.269Z,31.9
2017-03-28T10:56:22.430Z,31.8
2017-03-28T10:57:23.360Z,31.8
2017-03-28T10:58:32.249Z,31.8
2017-03-28T10:59:23.664Z,31.9
2017-03-28T11:00:32.588Z,31.9
2017-03-28T11:01:23.581Z,32
2017-03-28T11:02:32.690Z,32
2017-03-28T11:03:32.350Z,32
2017-03-28T11:04:22.363Z,32.1
2017-03-28T11:05:24.732Z,32
2017-03-28T11:06:22.366Z,32.1
2017-03-28T11:07:24.151Z,32.1
2017-03-28T11:08:22.566Z,32
2017-03-28T11:09:22.571Z,32.1
2017-03-28T11:10:22.683Z,32.1
2017-03-28T11:11:22.644Z,32.1
2017-03-28T11:12:24.207Z,32.1
2017-03-28T11:13:22.833Z,32.1
2017-03-28T11:14:22.904Z,32.1
2017-03-28T11:15:25.376Z,32.1
2017-03-28T11:16:22.805Z,32.1
2017-03-28T11:17:23.066Z,32.1
2017-03-28T11:18:40.405Z,32.1
2017-03-28T11:19:24.663Z,32.1
2017-03-28T11:20:25.356Z,32.1
2017-03-28T11:21:23.775Z,32.1
2017-03-28T11:22:23.041Z,32.1
2017-03-28T11:23:23.908Z,32.1
2017-03-28T11:24:23.183Z,32.1
2017-03-28T11:25:24.043Z,32.2
2017-03-28T11:26:24.950Z,32.2
2017-03-28T11:27:27.388Z,32.2
2017-03-28T11:28:25.860Z,32.3
2017-03-28T11:29:25.098Z,32.3
2017-03-28T11:30:23.570Z,32.3
2017-03-28T11:31:25.299Z,32.2
2017-03-28T11:32:25.239Z,32.2
2017-03-28T11:33:23.729Z,32.2
2017-03-28T11:34:32.456Z,32.2
2017-03-28T11:35:26.043Z,32.2
2017-03-28T11:36:23.872Z,32.1
2017-03-28T11:37:24.479Z,32.1
2017-03-28T11:38:26.131Z,32.1
2017-03-28T11:39:25.490Z,32.1
2017-03-28T11:40:25.556Z,32.1
2017-03-28T11:41:24.039Z,32.1
2017-03-28T11:42:24.061Z,32.1
2017-03-28T11:43:24.039Z,32.1
2017-03-28T11:44:26.364Z,32.1
2017-03-28T11:45:25.866Z,32.1
2017-03-28T11:46:25.806Z,32.1
2017-03-28T11:47:24.969Z,32
2017-03-28T11:48:24.310Z,32
2017-03-28T11:49:32.776Z,32
2017-03-28T11:50:24.495Z,32
2017-03-28T11:51:24.545Z,32
2017-03-28T11:52:24.614Z,32
2017-03-28T11:53:26.285Z,32
2017-03-28T11:54:26.184Z,32
2017-03-28T11:55:26.314Z,32
2017-03-28T11:56:26.682Z,32
2017-03-28T11:57:24.928Z,32
2017-03-28T11:58:24.991Z,32
2017-03-28T11:59:25.012Z,32
2017-03-28T12:00:26.590Z,32
2017-03-28T12:01:26.751Z,32
2017-03-28T12:02:25.177Z,32
2017-03-28T12:03:26.830Z,32
2017-03-28T12:04:26.213Z,32
2017-03-28T12:05:25.397Z,32
2017-03-28T12:06:27.100Z,32.1
2017-03-28T12:07:25.329Z,32.1
2017-03-28T12:08:26.982Z,32.1
2017-03-28T12:09:25.455Z,32.1
2017-03-28T12:10:25.610Z,32.1
2017-03-28T12:11:27.290Z,32.1
2017-03-28T12:12:31.935Z,32.1
2017-03-28T12:13:25.598Z,32.1
2017-03-28T12:14:27.258Z,32.1
2017-03-28T12:15:27.453Z,32.1
2017-03-28T12:16:27.450Z,32.2
2017-03-28T12:17:27.598Z,32.2
2017-03-28T12:18:25.855Z,32.1
2017-03-28T12:19:27.611Z,32.1
2017-03-28T12:20:25.925Z,32.1
2017-03-28T12:21:27.602Z,32.1
2017-03-28T12:22:27.778Z,32.1
2017-03-28T12:23:26.192Z,32.2
2017-03-28T12:24:26.364Z,32.2
2017-03-28T12:25:27.974Z,32.2
2017-03-28T12:26:26.238Z,32.2
2017-03-28T12:27:26.323Z,32.2
2017-03-28T12:28:26.473Z,32.2
2017-03-28T12:29:26.426Z,32.2
2017-03-28T12:30:28.249Z,32.2
2017-03-28T12:31:28.860Z,32.2
2017-03-28T12:32:28.139Z,32.2
2017-03-28T12:33:32.161Z,32.2
2017-03-28T12:34:28.305Z,32.2
2017-03-28T12:35:29.020Z,32.2
2017-03-28T12:36:28.452Z,32.1
2017-03-28T12:37:28.553Z,32.2
2017-03-28T12:38:29.803Z,32.2
2017-03-28T12:39:26.939Z,32.2
2017-03-28T12:40:28.794Z,32.2
2017-03-28T12:41:29.473Z,32.2
2017-03-28T12:42:27.284Z,32.2
2017-03-28T12:43:27.170Z,32.3
2017-03-28T12:44:28.816Z,32.2
2017-03-28T12:45:29.321Z,32.3
2017-03-28T12:46:27.302Z,32.3
2017-03-28T12:47:32.884Z,32.4
2017-03-28T12:48:35.031Z,32.4
2017-03-28T12:49:29.262Z,32.4
2017-03-28T12:50:29.091Z,32.4
2017-03-28T12:51:29.174Z,32.3
2017-03-28T12:52:29.860Z,32.3
2017-03-28T12:53:29.371Z,32.3
2017-03-28T12:54:27.662Z,32.3
2017-03-28T12:55:29.493Z,32.3
2017-03-28T12:56:27.711Z,32.3
2017-03-28T12:57:27.896Z,32.3
2017-03-28T12:58:27.720Z,32.3
2017-03-28T12:59:29.999Z,32.4
2017-03-28T13:00:29.461Z,32.3
2017-03-28T13:01:29.554Z,32.3
2017-03-28T13:02:29.475Z,32.4
2017-03-28T13:03:29.478Z,32.4
2017-03-28T13:05:28.056Z,32.4
2017-03-28T13:06:28.221Z,32.4
2017-03-28T13:07:28.070Z,32.4
2017-03-28T13:08:34.673Z,32.4
2017-03-28T13:09:30.421Z,32.3
2017-03-28T13:10:29.867Z,32.4
2017-03-28T13:11:28.287Z,32.4
2017-03-28T13:12:28.197Z,32.4
2017-03-28T13:13:34.711Z,32.4
2017-03-28T13:14:28.257Z,32.4
2017-03-28T13:15:40.265Z,32.5
2017-03-28T13:16:30.738Z,32.4
2017-03-28T13:17:31.116Z,32.4
2017-03-28T13:18:30.357Z,32.4
2017-03-28T13:19:30.744Z,32.5
2017-03-28T13:20:30.225Z,32.5
2017-03-28T13:21:35.925Z,32.5
2017-03-28T13:22:30.470Z,32.6
2017-03-28T13:23:30.078Z,32.6
2017-03-28T13:24:30.834Z,32.6
2017-03-28T13:25:30.646Z,32.6
2017-03-28T13:26:30.548Z,32.5
2017-03-28T13:27:29.296Z,32.5
2017-03-28T13:28:30.851Z,32.6
2017-03-28T13:29:29.303Z,32.6
2017-03-28T13:30:31.005Z,32.6
2017-03-28T13:31:29.368Z,32.6
2017-03-28T13:32:31.106Z,32.7
2017-03-28T13:33:29.379Z,32.7
2017-03-28T13:34:31.133Z,32.7
2017-03-28T13:35:31.213Z,32.7
2017-03-28T13:36:29.594Z,32.7
2017-03-28T13:37:30.259Z,32.7
2017-03-28T13:38:29.673Z,32.7
2017-03-28T13:39:31.229Z,32.7
2017-03-28T13:40:32.581Z,32.7
2017-03-28T13:41:29.830Z,32.7
2017-03-28T13:42:29.738Z,32.9
2017-03-28T13:43:31.495Z,33
2017-03-28T13:44:30.034Z,33.1
2017-03-28T13:45:30.108Z,33.3
2017-03-28T13:46:31.795Z,33.4
2017-03-28T13:47:31.782Z,33.6
2017-03-28T13:48:32.366Z,33.7
2017-03-28T13:49:30.203Z,34
2017-03-28T13:50:32.009Z,34.3